Impacts METAR Board
IDs:

KORD - Chicago/O'Hare Intl, IL, US

Updated at: 1300 UTC 13 Dec 2018
Potential Impact None Slight Moderate High
Time 13/01Z 13/02Z 13/03Z 13/04Z 13/05Z 13/06Z 13/07Z 13/08Z 13/09Z 13/10Z 13/11Z 13/12Z 13/13Z
Temp32 31 31 30 30 29 28 27 24 26 25 25 25
Dewpt24 25 25 24 24 24 24 24 22 23 23 22 23
Altim29.88 29.90 29.92 29.94 29.94 29.95 29.97 29.98 30.00 30.02 30.03 30.04 30.05
VIS9 9 8 8 8 7 6 6 6 5 5 5 5
CIG35 41 41 42 230 -- -- -- -- -- -- -- --
CoverOVCOVCOVCOVCBKNSCTFEWCLRCLRCLRCLRCLRFEW
FltCatVFRVFRVFRVFRVFRVFRVFRVFRVFRMVFRMVFRMVFRMVFR
WX------------BRBRBRBRBRBRBR
WDir260270270280024022000001500
WSpd7 8 5 3 0 4 3 0 0 0 0 3 0
WGst-- -- -- -- -- -- -- -- -- -- -- -- --
Raw hourly METARs
KORD 130051Z 26007KT 9SM SCT021 OVC035 00/M04 A2988 RMK AO2 SLP126 T00001044
KORD 130151Z 27008KT 9SM OVC041 M01/M04 A2990 RMK AO2 SLP132 T10061039
KORD 130251Z 27005KT 8SM OVC041 M01/M04 A2992 RMK AO2 SLP137 T10061039 51018
KORD 130351Z 28003KT 8SM SCT024 BKN042 OVC250 M01/M04 A2994 RMK AO2 SLP144 T10111044
KORD 130451Z 00000KT 8SM FEW024 FEW042 BKN230 M01/M04 A2994 RMK AO2 SLP145 T10111044
KORD 130551Z 24004KT 7SM SCT250 M02/M04 A2995 RMK AO2 SLP150 T10171044 10000 21017 400501017 51012
KORD 130651Z 22003KT 6SM BR FEW250 M02/M04 A2997 RMK AO2 SLP155 T10221044
KORD 130751Z 00000KT 6SM BR CLR M03/M04 A2998 RMK AO2 SLP159 T10281044
KORD 130851Z 00000KT 6SM BR CLR M04/M06 A3000 RMK AO2 SLP166 T10441056 53014
KORD 130951Z 00000KT 5SM BR CLR M03/M05 A3002 RMK AO2 SLP173 I1000 T10331050
KORD 131051Z 00000KT 5SM BR CLR M04/M05 A3003 RMK AO2 SLP177 I1000 T10391050
KORD 131151Z 15003KT 5SM BR CLR M04/M06 A3004 RMK AO2 SLP181 I1000 I6000 T10391056 11017 21044 51015
KORD 131251Z 00000KT 5SM BR FEW250 M04/M05 A3005 RMK AO2 SLP186 T10391050



Page loaded:  13:59 UTC  |   05:59 AM Pacific  |   06:59 AM Mountain  |   07:59 AM Central  |   08:59 AM Eastern

 

ADVISORIES

FORECASTS

FORECASTS

OBSERVATIONS

USER TOOLS

ABOUT US